sensor_id;sensor_type;location;lat;lon;timestamp;pressure;altitude;pressure_sealevel;temperature;humidity
23253;BME280;11795;47.054;15.408;2023-03-13T00:00:00;97410;;;3.3;64.4
23253;BME280;11795;47.054;15.408;2023-03-13T00:02:00;97410;;;3.2;64.7
23253;BME280;11795;47.054;15.408;2023-03-13T00:04:01;97420;;;3.3;64.7
23253;BME280;11795;47.054;15.408;2023-03-13T00:06:00;97420;;;3.2;65.1
23253;BME280;11795;47.054;15.408;2023-03-13T00:08:00;97420;;;3.1;65.3
23253;BME280;11795;47.054;15.408;2023-03-13T00:10:00;97420;;;3.3;65.0
23253;BME280;11795;47.054;15.408;2023-03-13T00:12:00;97430;;;3.2;65.7
23253;BME280;11795;47.054;15.408;2023-03-13T00:14:02;97420;;;3.2;65.8
23253;BME280;11795;47.054;15.408;2023-03-13T00:16:01;97430;;;3.2;65.9
23253;BME280;11795;47.054;15.408;2023-03-13T00:18:00;97440;;;3.0;66.5
23253;BME280;11795;47.054;15.408;2023-03-13T00:20:00;97430;;;3.0;66.3
23253;BME280;11795;47.054;15.408;2023-03-13T00:22:00;97440;;;2.9;67.0
23253;BME280;11795;47.054;15.408;2023-03-13T00:24:00;97430;;;3.0;66.7
23253;BME280;11795;47.054;15.408;2023-03-13T00:26:03;97440;;;2.9;66.6
23253;BME280;11795;47.054;15.408;2023-03-13T00:28:00;97440;;;2.9;66.8
23253;BME280;11795;47.054;15.408;2023-03-13T00:30:00;97440;;;3.0;66.5
23253;BME280;11795;47.054;15.408;2023-03-13T00:32:00;97440;;;2.8;66.9
23253;BME280;11795;47.054;15.408;2023-03-13T00:34:02;97440;;;2.9;67.1
23253;BME280;11795;47.054;15.408;2023-03-13T00:36:03;97440;;;2.8;67.2
23253;BME280;11795;47.054;15.408;2023-03-13T00:38:00;97430;;;2.8;67.2
23253;BME280;11795;47.054;15.408;2023-03-13T00:40:00;97440;;;3.0;66.7
23253;BME280;11795;47.054;15.408;2023-03-13T00:42:03;97430;;;2.8;67.0
23253;BME280;11795;47.054;15.408;2023-03-13T00:44:00;97430;;;3.0;66.7
23253;BME280;11795;47.054;15.408;2023-03-13T00:46:01;97430;;;2.8;66.7
23253;BME280;11795;47.054;15.408;2023-03-13T00:48:00;97430;;;2.7;67.0
23253;BME280;11795;47.054;15.408;2023-03-13T00:50:00;97430;;;2.9;66.5
23253;BME280;11795;47.054;15.408;2023-03-13T00:52:00;97430;;;2.7;66.9
23253;BME280;11795;47.054;15.408;2023-03-13T00:54:01;97430;;;2.9;66.7
23253;BME280;11795;47.054;15.408;2023-03-13T00:56:02;97420;;;2.8;66.7
23253;BME280;11795;47.054;15.408;2023-03-13T00:58:00;97420;;;2.7;67.1
23253;BME280;11795;47.054;15.408;2023-03-13T01:00:00;97420;;;2.9;66.6
23253;BME280;11795;47.054;15.408;2023-03-13T01:02:00;97420;;;2.7;67.1
23253;BME280;11795;47.054;15.408;2023-03-13T01:04:02;97420;;;2.9;66.9
23253;BME280;11795;47.054;15.408;2023-03-13T01:06:02;97420;;;2.8;66.9
23253;BME280;11795;47.054;15.408;2023-03-13T01:08:00;97410;;;2.7;67.2
23253;BME280;11795;47.054;15.408;2023-03-13T01:10:00;97410;;;2.9;66.7
23253;BME280;11795;47.054;15.408;2023-03-13T01:12:00;97410;;;2.7;67.0
23253;BME280;11795;47.054;15.408;2023-03-13T01:14:02;97400;;;2.8;66.9
23253;BME280;11795;47.054;15.408;2023-03-13T01:16:02;97400;;;2.6;68.5
23253;BME280;11795;47.054;15.408;2023-03-13T01:18:00;97400;;;2.6;68.7
23253;BME280;11795;47.054;15.408;2023-03-13T01:20:00;97400;;;2.7;68.0
23253;BME280;11795;47.054;15.408;2023-03-13T01:22:00;97400;;;2.6;68.2
23253;BME280;11795;47.054;15.408;2023-03-13T01:24:01;97390;;;2.7;68.0
23253;BME280;11795;47.054;15.408;2023-03-13T01:26:03;97390;;;2.6;68.3
23253;BME280;11795;47.054;15.408;2023-03-13T01:28:00;97400;;;2.6;68.4
23253;BME280;11795;47.054;15.408;2023-03-13T01:30:00;97400;;;2.7;67.9
23253;BME280;11795;47.054;15.408;2023-03-13T01:32:00;97400;;;2.5;68.4
23253;BME280;11795;47.054;15.408;2023-03-13T01:34:02;97410;;;2.6;68.4
23253;BME280;11795;47.054;15.408;2023-03-13T01:36:01;97400;;;2.5;68.4
23253;BME280;11795;47.054;15.408;2023-03-13T01:38:00;97400;;;2.4;68.8
23253;BME280;11795;47.054;15.408;2023-03-13T01:40:00;97410;;;2.6;68.4
23253;BME280;11795;47.054;15.408;2023-03-13T01:42:02;97400;;;2.4;69.0
23253;BME280;11795;47.054;15.408;2023-03-13T01:44:00;97400;;;2.5;68.8
23253;BME280;11795;47.054;15.408;2023-03-13T01:46:09;97400;;;2.5;68.9
23253;BME280;11795;47.054;15.408;2023-03-13T01:48:00;97400;;;2.4;69.3
23253;BME280;11795;47.054;15.408;2023-03-13T01:50:01;97400;;;2.6;68.6
23253;BME280;11795;47.054;15.408;2023-03-13T01:52:03;97400;;;2.5;68.9
23253;BME280;11795;47.054;15.408;2023-03-13T01:54:04;97390;;;2.6;68.7
23253;BME280;11795;47.054;15.408;2023-03-13T01:56:04;97390;;;2.5;68.4
23253;BME280;11795;47.054;15.408;2023-03-13T01:58:01;97390;;;2.3;69.0
23253;BME280;11795;47.054;15.408;2023-03-13T02:00:03;97390;;;2.5;68.4
23253;BME280;11795;47.054;15.408;2023-03-13T02:02:02;97400;;;2.3;68.7
23253;BME280;11795;47.054;15.408;2023-03-13T02:04:01;97400;;;2.5;68.4
23253;BME280;11795;47.054;15.408;2023-03-13T02:06:01;97390;;;2.3;68.5
23253;BME280;11795;47.054;15.408;2023-03-13T02:08:02;97390;;;2.2;68.9
23253;BME280;11795;47.054;15.408;2023-03-13T02:10:00;97390;;;2.4;68.4
23253;BME280;11795;47.054;15.408;2023-03-13T02:12:03;97390;;;2.2;68.9
23253;BME280;11795;47.054;15.408;2023-03-13T02:14:01;97390;;;2.4;68.7
23253;BME280;11795;47.054;15.408;2023-03-13T02:16:01;97390;;;2.3;68.7
23253;BME280;11795;47.054;15.408;2023-03-13T02:18:00;97390;;;2.2;69.1
23253;BME280;11795;47.054;15.408;2023-03-13T02:20:01;97390;;;2.4;68.5
23253;BME280;11795;47.054;15.408;2023-03-13T02:22:08;97380;;;2.2;69.1
23253;BME280;11795;47.054;15.408;2023-03-13T02:24:08;97370;;;2.3;68.9
23253;BME280;11795;47.054;15.408;2023-03-13T02:26:01;97370;;;2.2;69.0
23253;BME280;11795;47.054;15.408;2023-03-13T02:28:04;97380;;;2.1;69.3
23253;BME280;11795;47.054;15.408;2023-03-13T02:30:01;97380;;;2.2;68.9
23253;BME280;11795;47.054;15.408;2023-03-13T02:32:01;97380;;;2.1;69.1
23253;BME280;11795;47.054;15.408;2023-03-13T02:34:01;97370;;;2.2;69.1
23253;BME280;11795;47.054;15.408;2023-03-13T02:36:01;97370;;;2.1;69.2
23253;BME280;11795;47.054;15.408;2023-03-13T02:38:03;97370;;;2.0;69.5
23253;BME280;11795;47.054;15.408;2023-03-13T02:40:03;97360;;;2.2;68.9
23253;BME280;11795;47.054;15.408;2023-03-13T02:42:02;97370;;;2.0;69.9
23253;BME280;11795;47.054;15.408;2023-03-13T02:44:00;97360;;;2.1;69.8
23253;BME280;11795;47.054;15.408;2023-03-13T02:46:03;97350;;;2.0;69.8
23253;BME280;11795;47.054;15.408;2023-03-13T02:48:00;97350;;;2.0;70.2
23253;BME280;11795;47.054;15.408;2023-03-13T02:50:00;97350;;;2.1;69.7
23253;BME280;11795;47.054;15.408;2023-03-13T02:52:08;97350;;;1.9;70.2
23253;BME280;11795;47.054;15.408;2023-03-13T02:54:03;97350;;;2.0;70.4
23253;BME280;11795;47.054;15.408;2023-03-13T02:56:00;97350;;;2.0;70.5
23253;BME280;11795;47.054;15.408;2023-03-13T02:58:00;97360;;;1.8;70.9
23253;BME280;11795;47.054;15.408;2023-03-13T03:00:00;97360;;;2.0;70.4
23253;BME280;11795;47.054;15.408;2023-03-13T03:02:01;97370;;;1.9;70.4
23253;BME280;11795;47.054;15.408;2023-03-13T03:04:00;97370;;;1.9;70.5
23253;BME280;11795;47.054;15.408;2023-03-13T03:06:01;97370;;;1.8;70.6
23253;BME280;11795;47.054;15.408;2023-03-13T03:08:00;97360;;;1.7;71.2
23253;BME280;11795;47.054;15.408;2023-03-13T03:10:01;97350;;;1.8;70.9
23253;BME280;11795;47.054;15.408;2023-03-13T03:12:00;97360;;;1.6;71.4
23253;BME280;11795;47.054;15.408;2023-03-13T03:14:01;97360;;;1.7;71.2
23253;BME280;11795;47.054;15.408;2023-03-13T03:16:04;97360;;;1.7;70.9
23253;BME280;11795;47.054;15.408;2023-03-13T03:18:00;97360;;;1.6;71.3
23253;BME280;11795;47.054;15.408;2023-03-13T03:20:00;97350;;;1.8;70.6
23253;BME280;11795;47.054;15.408;2023-03-13T03:22:00;97340;;;1.6;71.2
23253;BME280;11795;47.054;15.408;2023-03-13T03:24:01;97350;;;1.8;71.0
23253;BME280;11795;47.054;15.408;2023-03-13T03:26:02;97350;;;1.6;71.5
23253;BME280;11795;47.054;15.408;2023-03-13T03:28:00;97350;;;1.5;72.2
23253;BME280;11795;47.054;15.408;2023-03-13T03:30:01;97350;;;1.7;71.2
23253;BME280;11795;47.054;15.408;2023-03-13T03:32:00;97340;;;1.5;71.6
23253;BME280;11795;47.054;15.408;2023-03-13T03:34:01;97330;;;1.6;71.7
23253;BME280;11795;47.054;15.408;2023-03-13T03:36:02;97330;;;1.5;72.0
23253;BME280;11795;47.054;15.408;2023-03-13T03:38:00;97340;;;1.4;72.4
23253;BME280;11795;47.054;15.408;2023-03-13T03:40:00;97340;;;1.7;71.5
23253;BME280;11795;47.054;15.408;2023-03-13T03:42:00;97340;;;1.4;72.2
23253;BME280;11795;47.054;15.408;2023-03-13T03:44:00;97340;;;1.5;72.2
23253;BME280;11795;47.054;15.408;2023-03-13T03:46:01;97330;;;1.5;72.2
23253;BME280;11795;47.054;15.408;2023-03-13T03:48:00;97330;;;1.4;72.4
23253;BME280;11795;47.054;15.408;2023-03-13T03:50:02;97330;;;1.6;71.8
23253;BME280;11795;47.054;15.408;2023-03-13T03:52:00;97330;;;1.4;72.3
23253;BME280;11795;47.054;15.408;2023-03-13T03:54:00;97330;;;1.5;72.4
23253;BME280;11795;47.054;15.408;2023-03-13T03:56:00;97340;;;1.5;72.0
23253;BME280;11795;47.054;15.408;2023-03-13T03:58:01;97330;;;1.4;72.5
23253;BME280;11795;47.054;15.408;2023-03-13T04:00:00;97340;;;1.5;72.2
23253;BME280;11795;47.054;15.408;2023-03-13T04:02:01;97330;;;1.4;73.0
23253;BME280;11795;47.054;15.408;2023-03-13T04:04:01;97330;;;1.5;72.9
23253;BME280;11795;47.054;15.408;2023-03-13T04:06:00;97340;;;1.4;73.0
23253;BME280;11795;47.054;15.408;2023-03-13T04:08:00;97340;;;1.4;73.0
23253;BME280;11795;47.054;15.408;2023-03-13T04:10:01;97330;;;1.5;72.8
23253;BME280;11795;47.054;15.408;2023-03-13T04:12:00;97330;;;1.3;73.4
23253;BME280;11795;47.054;15.408;2023-03-13T04:14:00;97330;;;1.3;73.5
23253;BME280;11795;47.054;15.408;2023-03-13T04:16:05;97330;;;1.3;73.5
23253;BME280;11795;47.054;15.408;2023-03-13T04:18:00;97330;;;1.2;73.7
23253;BME280;11795;47.054;15.408;2023-03-13T04:20:01;97330;;;1.4;72.9
23253;BME280;11795;47.054;15.408;2023-03-13T04:22:00;97340;;;1.3;73.2
23253;BME280;11795;47.054;15.408;2023-03-13T04:24:00;97340;;;1.3;73.3
23253;BME280;11795;47.054;15.408;2023-03-13T04:26:00;97340;;;1.3;72.8
23253;BME280;11795;47.054;15.408;2023-03-13T04:28:01;97330;;;1.1;73.4
23253;BME280;11795;47.054;15.408;2023-03-13T04:30:01;97330;;;1.3;73.0
23253;BME280;11795;47.054;15.408;2023-03-13T04:32:01;97340;;;1.1;73.4
23253;BME280;11795;47.054;15.408;2023-03-13T04:34:00;97340;;;1.2;73.5
23253;BME280;11795;47.054;15.408;2023-03-13T04:36:00;97340;;;1.2;73.3
23253;BME280;11795;47.054;15.408;2023-03-13T04:38:01;97340;;;1.1;73.6
23253;BME280;11795;47.054;15.408;2023-03-13T04:40:00;97350;;;1.3;73.0
23253;BME280;11795;47.054;15.408;2023-03-13T04:42:00;97350;;;1.2;73.5
23253;BME280;11795;47.054;15.408;2023-03-13T04:44:00;97350;;;1.2;73.5
23253;BME280;11795;47.054;15.408;2023-03-13T04:46:00;97340;;;1.2;73.3
23253;BME280;11795;47.054;15.408;2023-03-13T04:48:00;97350;;;1.2;73.7
23253;BME280;11795;47.054;15.408;2023-03-13T04:50:00;97350;;;1.3;73.0
23253;BME280;11795;47.054;15.408;2023-03-13T04:52:01;97350;;;1.2;73.3
23253;BME280;11795;47.054;15.408;2023-03-13T04:54:00;97340;;;1.2;73.3
23253;BME280;11795;47.054;15.408;2023-03-13T04:56:00;97340;;;1.3;72.9
23253;BME280;11795;47.054;15.408;2023-03-13T04:58:00;97340;;;1.2;73.6
23253;BME280;11795;47.054;15.408;2023-03-13T05:00:00;97330;;;1.4;73.1
23253;BME280;11795;47.054;15.408;2023-03-13T05:02:00;97340;;;1.3;73.4
23253;BME280;11795;47.054;15.408;2023-03-13T05:04:00;97340;;;1.3;73.6
23253;BME280;11795;47.054;15.408;2023-03-13T05:06:00;97330;;;1.3;73.4
23253;BME280;11795;47.054;15.408;2023-03-13T05:08:00;97340;;;1.2;73.8
23253;BME280;11795;47.054;15.408;2023-03-13T05:10:00;97330;;;1.4;73.3
23253;BME280;11795;47.054;15.408;2023-03-13T05:12:00;97330;;;1.3;73.6
23253;BME280;11795;47.054;15.408;2023-03-13T05:14:00;97330;;;1.3;73.8
23253;BME280;11795;47.054;15.408;2023-03-13T05:16:00;97330;;;1.4;73.6
23253;BME280;11795;47.054;15.408;2023-03-13T05:18:01;97330;;;1.3;73.9
23253;BME280;11795;47.054;15.408;2023-03-13T05:20:00;97330;;;1.4;73.3
23253;BME280;11795;47.054;15.408;2023-03-13T05:22:01;97320;;;1.3;73.7
23253;BME280;11795;47.054;15.408;2023-03-13T05:24:00;97320;;;1.4;73.7
23253;BME280;11795;47.054;15.408;2023-03-13T05:26:01;97320;;;1.4;73.3
23253;BME280;11795;47.054;15.408;2023-03-13T05:28:01;97320;;;1.4;73.7
23253;BME280;11795;47.054;15.408;2023-03-13T05:30:00;97320;;;1.6;73.2
23253;BME280;11795;47.054;15.408;2023-03-13T05:32:00;97320;;;1.5;73.4
23253;BME280;11795;47.054;15.408;2023-03-13T05:34:00;97320;;;1.6;73.4
23253;BME280;11795;47.054;15.408;2023-03-13T05:36:00;97310;;;1.7;72.9
23253;BME280;11795;47.054;15.408;2023-03-13T05:38:00;97320;;;1.8;73.3
23253;BME280;11795;47.054;15.408;2023-03-13T05:40:00;97320;;;2.2;72.0
23253;BME280;11795;47.054;15.408;2023-03-13T05:42:00;97320;;;2.1;71.8
23253;BME280;11795;47.054;15.408;2023-03-13T05:44:00;97320;;;2.2;71.5
23253;BME280;11795;47.054;15.408;2023-03-13T05:46:00;97320;;;2.2;70.3
23253;BME280;11795;47.054;15.408;2023-03-13T05:48:00;97320;;;2.1;70.9
23253;BME280;11795;47.054;15.408;2023-03-13T05:50:00;97320;;;2.3;70.3
23253;BME280;11795;47.054;15.408;2023-03-13T05:52:00;97320;;;2.1;70.6
23253;BME280;11795;47.054;15.408;2023-03-13T05:54:00;97320;;;2.0;71.2
23253;BME280;11795;47.054;15.408;2023-03-13T05:56:01;97320;;;2.1;70.8
23253;BME280;11795;47.054;15.408;2023-03-13T05:58:00;97320;;;2.1;70.9
23253;BME280;11795;47.054;15.408;2023-03-13T06:00:01;97320;;;2.2;70.8
23253;BME280;11795;47.054;15.408;2023-03-13T06:02:00;97320;;;2.0;71.4
23253;BME280;11795;47.054;15.408;2023-03-13T06:04:01;97320;;;2.1;71.5
23253;BME280;11795;47.054;15.408;2023-03-13T06:06:01;97320;;;2.2;71.0
23253;BME280;11795;47.054;15.408;2023-03-13T06:08:02;97320;;;2.3;71.2
23253;BME280;11795;47.054;15.408;2023-03-13T06:10:01;97320;;;2.5;70.4
23253;BME280;11795;47.054;15.408;2023-03-13T06:12:00;97320;;;2.5;70.8
23253;BME280;11795;47.054;15.408;2023-03-13T06:14:00;97320;;;2.7;70.5
23253;BME280;11795;47.054;15.408;2023-03-13T06:16:00;97310;;;3.0;69.7
23253;BME280;11795;47.054;15.408;2023-03-13T06:18:00;97320;;;3.2;69.0
23253;BME280;11795;47.054;15.408;2023-03-13T06:20:01;97310;;;3.5;68.0
23253;BME280;11795;47.054;15.408;2023-03-13T06:22:00;97310;;;3.6;67.6
23253;BME280;11795;47.054;15.408;2023-03-13T06:24:00;97300;;;3.7;67.4
23253;BME280;11795;47.054;15.408;2023-03-13T06:26:01;97310;;;3.9;66.2
23253;BME280;11795;47.054;15.408;2023-03-13T06:28:00;97310;;;3.9;66.2
23253;BME280;11795;47.054;15.408;2023-03-13T06:30:00;97310;;;4.1;65.4
23253;BME280;11795;47.054;15.408;2023-03-13T06:32:00;97310;;;4.0;65.3
23253;BME280;11795;47.054;15.408;2023-03-13T06:34:00;97300;;;4.0;65.6
23253;BME280;11795;47.054;15.408;2023-03-13T06:36:00;97310;;;4.1;65.2
23253;BME280;11795;47.054;15.408;2023-03-13T06:38:00;97300;;;3.9;65.5
23253;BME280;11795;47.054;15.408;2023-03-13T06:40:00;97320;;;4.1;65.2
23253;BME280;11795;47.054;15.408;2023-03-13T06:42:00;97320;;;4.0;65.6
23253;BME280;11795;47.054;15.408;2023-03-13T06:44:01;97310;;;4.0;65.7
23253;BME280;11795;47.054;15.408;2023-03-13T06:46:02;97310;;;4.1;64.9
23253;BME280;11795;47.054;15.408;2023-03-13T06:48:00;97310;;;4.0;65.6
23253;BME280;11795;47.054;15.408;2023-03-13T06:50:01;97310;;;4.2;65.6
23253;BME280;11795;47.054;15.408;2023-03-13T06:52:00;97310;;;4.1;65.8
23253;BME280;11795;47.054;15.408;2023-03-13T06:54:01;97300;;;4.1;65.9
23253;BME280;11795;47.054;15.408;2023-03-13T06:56:01;97300;;;4.3;65.4
23253;BME280;11795;47.054;15.408;2023-03-13T06:58:00;97300;;;4.2;65.7
23253;BME280;11795;47.054;15.408;2023-03-13T07:00:00;97300;;;4.5;65.1
23253;BME280;11795;47.054;15.408;2023-03-13T07:02:00;97300;;;4.3;65.5
23253;BME280;11795;47.054;15.408;2023-03-13T07:04:00;97300;;;4.3;65.5
23253;BME280;11795;47.054;15.408;2023-03-13T07:06:00;97300;;;4.5;65.1
23253;BME280;11795;47.054;15.408;2023-03-13T07:08:00;97300;;;4.6;65.3
23253;BME280;11795;47.054;15.408;2023-03-13T07:10:00;97300;;;4.8;64.5
23253;BME280;11795;47.054;15.408;2023-03-13T07:12:02;97290;;;4.7;64.5
23253;BME280;11795;47.054;15.408;2023-03-13T07:14:01;97300;;;4.7;65.0
23253;BME280;11795;47.054;15.408;2023-03-13T07:16:01;97300;;;4.8;64.7
23253;BME280;11795;47.054;15.408;2023-03-13T07:18:00;97300;;;4.8;64.8
23253;BME280;11795;47.054;15.408;2023-03-13T07:20:01;97290;;;5.0;64.4
23253;BME280;11795;47.054;15.408;2023-03-13T07:22:00;97290;;;4.9;64.2
23253;BME280;11795;47.054;15.408;2023-03-13T07:24:00;97290;;;4.9;64.2
23253;BME280;11795;47.054;15.408;2023-03-13T07:26:02;97290;;;5.0;63.6
23253;BME280;11795;47.054;15.408;2023-03-13T07:28:00;97290;;;4.9;64.2
23253;BME280;11795;47.054;15.408;2023-03-13T07:30:00;97290;;;5.1;63.7
23253;BME280;11795;47.054;15.408;2023-03-13T07:32:01;97280;;;5.0;64.0
23253;BME280;11795;47.054;15.408;2023-03-13T07:34:00;97280;;;5.0;64.4
23253;BME280;11795;47.054;15.408;2023-03-13T07:36:00;97280;;;5.2;64.0
23253;BME280;11795;47.054;15.408;2023-03-13T07:38:00;97270;;;5.2;63.2
23253;BME280;11795;47.054;15.408;2023-03-13T07:40:00;97270;;;5.3;62.9
23253;BME280;11795;47.054;15.408;2023-03-13T07:42:00;97270;;;5.2;63.7
23253;BME280;11795;47.054;15.408;2023-03-13T07:44:01;97270;;;5.2;64.0
23253;BME280;11795;47.054;15.408;2023-03-13T07:46:03;97270;;;5.4;63.0
23253;BME280;11795;47.054;15.408;2023-03-13T07:48:01;97270;;;5.4;62.8
23253;BME280;11795;47.054;15.408;2023-03-13T07:50:00;97260;;;5.5;63.0
23253;BME280;11795;47.054;15.408;2023-03-13T07:52:00;97260;;;5.5;63.7
23253;BME280;11795;47.054;15.408;2023-03-13T07:54:00;97260;;;5.6;64.1
23253;BME280;11795;47.054;15.408;2023-03-13T07:56:02;97260;;;5.9;63.1
23253;BME280;11795;47.054;15.408;2023-03-13T07:58:00;97250;;;5.9;63.2
23253;BME280;11795;47.054;15.408;2023-03-13T08:00:00;97240;;;6.2;62.4
23253;BME280;11795;47.054;15.408;2023-03-13T08:02:00;97250;;;6.2;62.2
23253;BME280;11795;47.054;15.408;2023-03-13T08:04:00;97250;;;6.2;61.8
23253;BME280;11795;47.054;15.408;2023-03-13T08:06:02;97250;;;6.4;60.4
23253;BME280;11795;47.054;15.408;2023-03-13T08:08:00;97240;;;6.2;60.7
23253;BME280;11795;47.054;15.408;2023-03-13T08:10:00;97240;;;6.4;60.5
23253;BME280;11795;47.054;15.408;2023-03-13T08:12:01;97240;;;6.2;60.9
23253;BME280;11795;47.054;15.408;2023-03-13T08:14:00;97240;;;6.2;61.0
23253;BME280;11795;47.054;15.408;2023-03-13T08:16:02;97240;;;6.4;60.6
23253;BME280;11795;47.054;15.408;2023-03-13T08:18:00;97250;;;6.4;60.1
23253;BME280;11795;47.054;15.408;2023-03-13T08:20:00;97240;;;6.5;60.3
23253;BME280;11795;47.054;15.408;2023-03-13T08:22:01;97240;;;6.4;60.9
23253;BME280;11795;47.054;15.408;2023-03-13T08:24:02;97240;;;6.3;61.0
23253;BME280;11795;47.054;15.408;2023-03-13T08:26:02;97240;;;6.4;60.4
23253;BME280;11795;47.054;15.408;2023-03-13T08:28:00;97240;;;6.3;60.9
23253;BME280;11795;47.054;15.408;2023-03-13T08:30:00;97240;;;6.5;60.1
23253;BME280;11795;47.054;15.408;2023-03-13T08:32:00;97230;;;6.3;61.0
23253;BME280;11795;47.054;15.408;2023-03-13T08:34:00;97230;;;6.3;61.3
23253;BME280;11795;47.054;15.408;2023-03-13T08:36:07;97240;;;6.5;60.7
23253;BME280;11795;47.054;15.408;2023-03-13T08:38:01;97250;;;6.4;60.7
23253;BME280;11795;47.054;15.408;2023-03-13T08:40:01;97250;;;6.5;60.5
23253;BME280;11795;47.054;15.408;2023-03-13T08:42:01;97250;;;6.2;60.9
23253;BME280;11795;47.054;15.408;2023-03-13T08:44:01;97250;;;6.2;61.6
23253;BME280;11795;47.054;15.408;2023-03-13T08:46:00;97240;;;6.3;61.6
23253;BME280;11795;47.054;15.408;2023-03-13T08:48:00;97240;;;6.3;61.4
23253;BME280;11795;47.054;15.408;2023-03-13T08:50:01;97240;;;6.4;61.0
23253;BME280;11795;47.054;15.408;2023-03-13T08:52:02;97240;;;6.4;61.2
23253;BME280;11795;47.054;15.408;2023-03-13T08:54:01;97230;;;6.4;61.1
23253;BME280;11795;47.054;15.408;2023-03-13T08:56:01;97240;;;6.6;60.5
23253;BME280;11795;47.054;15.408;2023-03-13T08:58:00;97230;;;6.6;60.6
23253;BME280;11795;47.054;15.408;2023-03-13T09:00:00;97230;;;6.7;59.7
23253;BME280;11795;47.054;15.408;2023-03-13T09:02:02;97240;;;6.6;60.2
23253;BME280;11795;47.054;15.408;2023-03-13T09:04:03;97240;;;6.7;60.8
23253;BME280;11795;47.054;15.408;2023-03-13T09:06:01;97220;;;6.9;60.2
23253;BME280;11795;47.054;15.408;2023-03-13T09:08:00;97230;;;7.1;60.0
23253;BME280;11795;47.054;15.408;2023-03-13T09:10:00;97220;;;7.3;59.6
23253;BME280;11795;47.054;15.408;2023-03-13T09:12:00;97220;;;7.5;59.1
23253;BME280;11795;47.054;15.408;2023-03-13T09:14:00;97210;;;7.8;59.4
23253;BME280;11795;47.054;15.408;2023-03-13T09:16:03;97210;;;8.2;57.5
23253;BME280;11795;47.054;15.408;2023-03-13T09:18:00;97210;;;8.4;57.5
23253;BME280;11795;47.054;15.408;2023-03-13T09:20:00;97210;;;8.9;55.8
23253;BME280;11795;47.054;15.408;2023-03-13T09:22:00;97200;;;9.1;55.5
23253;BME280;11795;47.054;15.408;2023-03-13T09:24:01;97200;;;9.2;53.8
23253;BME280;11795;47.054;15.408;2023-03-13T09:26:01;97200;;;9.5;53.6
23253;BME280;11795;47.054;15.408;2023-03-13T09:28:00;97200;;;9.5;52.4
23253;BME280;11795;47.054;15.408;2023-03-13T09:30:00;97190;;;9.8;52.6
23253;BME280;11795;47.054;15.408;2023-03-13T09:32:01;97180;;;9.9;51.6
23253;BME280;11795;47.054;15.408;2023-03-13T09:34:01;97180;;;10.0;52.0
23253;BME280;11795;47.054;15.408;2023-03-13T09:36:00;97180;;;10.4;51.7
23253;BME280;11795;47.054;15.408;2023-03-13T09:38:00;97170;;;10.6;51.7
23253;BME280;11795;47.054;15.408;2023-03-13T09:40:00;97170;;;10.9;50.8
23253;BME280;11795;47.054;15.408;2023-03-13T09:42:06;97160;;;11.0;50.1
23253;BME280;11795;47.054;15.408;2023-03-13T09:44:04;97170;;;11.2;49.7
23253;BME280;11795;47.054;15.408;2023-03-13T09:46:03;97170;;;11.6;48.7
23253;BME280;11795;47.054;15.408;2023-03-13T09:48:03;97160;;;11.9;48.6
23253;BME280;11795;47.054;15.408;2023-03-13T09:50:04;97150;;;12.2;47.6
23253;BME280;11795;47.054;15.408;2023-03-13T09:52:09;97150;;;12.2;46.9
23253;BME280;11795;47.054;15.408;2023-03-13T09:54:05;97160;;;12.3;47.4
23253;BME280;11795;47.054;15.408;2023-03-13T09:56:02;97150;;;12.6;46.3
23253;BME280;11795;47.054;15.408;2023-03-13T09:58:03;97160;;;12.5;45.8
23253;BME280;11795;47.054;15.408;2023-03-13T10:00:04;97160;;;12.6;45.3
23253;BME280;11795;47.054;15.408;2023-03-13T10:02:03;97160;;;12.4;45.5
23253;BME280;11795;47.054;15.408;2023-03-13T10:04:06;97150;;;12.6;46.1
23253;BME280;11795;47.054;15.408;2023-03-13T10:06:05;97140;;;12.7;44.6
23253;BME280;11795;47.054;15.408;2023-03-13T10:08:11;97140;;;12.8;44.6
23253;BME280;11795;47.054;15.408;2023-03-13T10:10:02;97140;;;12.9;45.0
23253;BME280;11795;47.054;15.408;2023-03-13T10:12:06;97140;;;13.2;45.7
23253;BME280;11795;47.054;15.408;2023-03-13T10:14:03;97130;;;13.7;45.0
23253;BME280;11795;47.054;15.408;2023-03-13T10:16:03;97130;;;14.1;43.6
23253;BME280;11795;47.054;15.408;2023-03-13T10:18:12;97130;;;14.1;41.3
23253;BME280;11795;47.054;15.408;2023-03-13T10:20:15;97130;;;13.7;42.5
23253;BME280;11795;47.054;15.408;2023-03-13T10:22:02;97120;;;13.6;42.8
23253;BME280;11795;47.054;15.408;2023-03-13T10:24:05;97130;;;13.5;43.1
23253;BME280;11795;47.054;15.408;2023-03-13T10:26:00;97130;;;13.6;41.9
23253;BME280;11795;47.054;15.408;2023-03-13T10:28:01;97140;;;13.7;42.4
23253;BME280;11795;47.054;15.408;2023-03-13T10:30:00;97130;;;13.6;42.1
23253;BME280;11795;47.054;15.408;2023-03-13T10:32:02;97110;;;13.8;43.0
23253;BME280;11795;47.054;15.408;2023-03-13T10:34:10;97120;;;13.8;42.1
23253;BME280;11795;47.054;15.408;2023-03-13T10:36:04;97110;;;14.0;42.3
23253;BME280;11795;47.054;15.408;2023-03-13T10:38:04;97120;;;13.7;42.0
23253;BME280;11795;47.054;15.408;2023-03-13T10:40:11;97100;;;13.9;42.1
23253;BME280;11795;47.054;15.408;2023-03-13T10:42:08;97090;;;13.7;42.3
23253;BME280;11795;47.054;15.408;2023-03-13T10:44:03;97090;;;13.9;42.2
23253;BME280;11795;47.054;15.408;2023-03-13T10:46:03;97100;;;14.1;41.4
23253;BME280;11795;47.054;15.408;2023-03-13T10:48:03;97090;;;14.1;40.6
23253;BME280;11795;47.054;15.408;2023-03-13T10:50:01;97090;;;14.1;40.1
23253;BME280;11795;47.054;15.408;2023-03-13T10:52:03;97080;;;14.0;41.2
23253;BME280;11795;47.054;15.408;2023-03-13T10:54:12;97070;;;14.2;41.9
23253;BME280;11795;47.054;15.408;2023-03-13T10:56:04;97070;;;14.6;40.6
23253;BME280;11795;47.054;15.408;2023-03-13T10:58:02;97050;;;14.4;40.6
23253;BME280;11795;47.054;15.408;2023-03-13T11:00:26;97060;;;14.7;40.8
23253;BME280;11795;47.054;15.408;2023-03-13T11:02:01;97050;;;14.6;40.1
23253;BME280;11795;47.054;15.408;2023-03-13T11:04:18;97050;;;14.5;40.3
23253;BME280;11795;47.054;15.408;2023-03-13T11:06:02;97050;;;14.7;39.6
23253;BME280;11795;47.054;15.408;2023-03-13T11:08:17;97060;;;14.7;40.1
23253;BME280;11795;47.054;15.408;2023-03-13T11:10:05;97070;;;14.7;39.7
23253;BME280;11795;47.054;15.408;2023-03-13T11:12:03;97070;;;14.6;39.4
23253;BME280;11795;47.054;15.408;2023-03-13T11:14:11;97060;;;14.5;40.2
23253;BME280;11795;47.054;15.408;2023-03-13T11:16:09;97070;;;14.6;40.6
23253;BME280;11795;47.054;15.408;2023-03-13T11:18:05;97070;;;14.5;39.7